createdAt,value
2023-01-04T00:01:43.658Z,99982.97
2023-01-04T00:04:28.960Z,99991.31
2023-01-04T00:07:14.371Z,99979.38
2023-01-04T00:09:59.944Z,99979.81
2023-01-04T00:12:45.326Z,99979.00
2023-01-04T00:15:30.635Z,99971.09
2023-01-04T00:18:15.841Z,99963.53
2023-01-04T00:21:13.667Z,99959.16
2023-01-04T00:24:00.931Z,99962.75
2023-01-04T00:26:46.235Z,99975.03
2023-01-04T00:29:31.569Z,99962.34
2023-01-04T00:32:16.876Z,99960.75
2023-01-04T00:35:02.117Z,99962.34
2023-01-04T00:37:51.917Z,99957.19
2023-01-04T00:40:37.734Z,99950.84
2023-01-04T00:43:23.185Z,99945.28
2023-01-04T00:46:11.622Z,99945.69
2023-01-04T00:49:00.396Z,99944.91
2023-01-04T00:51:46.144Z,99932.22
2023-01-04T00:54:31.488Z,99943.34
2023-01-04T00:57:16.831Z,99942.53
2023-01-04T01:00:02.028Z,99936.97
2023-01-04T01:02:47.691Z,99937.41
2023-01-04T01:05:35.436Z,99922.69
2023-01-04T01:08:26.964Z,99911.56
2023-01-04T01:11:12.771Z,99913.94
2023-01-04T01:13:59.039Z,99895.72
2023-01-04T01:16:55.202Z,99900.06
2023-01-04T01:19:41.630Z,99898.88
2023-01-04T01:22:26.917Z,99900.06
2023-01-04T01:25:12.058Z,99892.50
2023-01-04T01:27:57.046Z,99895.28
2023-01-04T01:30:43.765Z,99888.94
2023-01-04T01:33:29.321Z,99900.06
2023-01-04T01:36:15.945Z,99904.84
2023-01-04T01:39:01.534Z,99884.59
2023-01-04T01:41:47.184Z,99883.38
2023-01-04T01:44:45.109Z,99883.78
2023-01-04T01:48:01.049Z,99876.25
2023-01-04T01:51:01.615Z,99864.75
2023-01-04T01:53:53.096Z,99857.97
2023-01-04T01:56:42.506Z,99864.75
2023-01-04T01:59:30.135Z,99852.81
2023-01-04T02:02:15.724Z,99857.97
2023-01-04T02:05:03.162Z,99859.59
2023-01-04T02:07:49.817Z,99854.81
2023-01-04T02:10:35.469Z,99868.72
2023-01-04T02:13:46.069Z,99861.59
2023-01-04T02:16:56.745Z,99862.00
2023-01-04T02:20:17.681Z,99855.25
2023-01-04T02:23:46.084Z,99848.50
2023-01-04T02:26:49.900Z,99840.59
2023-01-04T02:29:47.786Z,99830.25
2023-01-04T02:33:08.471Z,99821.91
2023-01-04T02:36:16.856Z,99821.91
2023-01-04T02:39:20.414Z,99805.25
2023-01-04T02:43:00.130Z,99812.38
2023-01-04T02:45:53.255Z,99794.91
2023-01-04T02:48:59.160Z,99790.13
2023-01-04T02:51:44.531Z,99779.03
2023-01-04T02:54:32.600Z,99786.59
2023-01-04T02:57:37.530Z,99771.13
2023-01-04T03:01:26.693Z,99766.34
2023-01-04T03:04:37.164Z,99761.56
2023-01-04T03:07:36.538Z,99762.34
2023-01-04T03:10:35.933Z,99746.91
2023-01-04T03:13:40.293Z,99751.25
2023-01-04T03:16:26.815Z,99751.25
2023-01-04T03:19:14.884Z,99734.56
2023-01-04T03:22:00.468Z,99733.00
2023-01-04T03:25:05.057Z,99728.22
2023-01-04T03:28:12.221Z,99721.09
2023-01-04T03:31:23.352Z,99718.72
2023-01-04T03:34:27.386Z,99714.72
2023-01-04T03:37:22.253Z,99704.47
2023-01-04T03:40:48.745Z,99697.72
2023-01-04T03:44:02.117Z,99689.38
2023-01-04T03:47:12.040Z,99683.00
2023-01-04T03:50:29.256Z,99672.72
2023-01-04T03:53:15.464Z,99666.78
2023-01-04T03:56:02.422Z,99662.00
2023-01-04T03:58:48.167Z,99654.84
2023-01-04T04:01:35.059Z,99647.69
2023-01-04T04:04:39.013Z,99638.16
2023-01-04T04:07:42.809Z,99632.59
2023-01-04T04:10:28.093Z,99629.81
2023-01-04T04:13:13.642Z,99627.44
2023-01-04T04:15:59.092Z,99628.25
2023-01-04T04:18:44.513Z,99628.25
2023-01-04T04:21:30.218Z,99624.25
2023-01-04T04:24:25.331Z,99608.00
2023-01-04T04:27:11.108Z,99607.59
2023-01-04T04:29:56.299Z,99602.44
2023-01-04T04:32:42.764Z,99606.44
2023-01-04T04:35:28.070Z,99588.16
2023-01-04T04:38:13.368Z,99594.09
2023-01-04T04:41:17.108Z,99584.97
2023-01-04T04:44:02.475Z,99582.19
2023-01-04T04:46:48.610Z,99586.19
2023-01-04T04:49:34.084Z,99586.19
2023-01-04T04:52:19.145Z,99571.94
2023-01-04T04:55:05.738Z,99575.91
2023-01-04T04:57:51.185Z,99570.34
2023-01-04T05:00:36.539Z,99568.00
2023-01-04T05:03:22.009Z,99560.84
2023-01-04T05:06:07.273Z,99554.88
2023-01-04T05:08:52.636Z,99555.28
2023-01-04T05:11:56.555Z,99556.06
2023-01-04T05:14:42.075Z,99544.94
2023-01-04T05:17:27.739Z,99541.38
2023-01-04T05:20:13.151Z,99540.94
2023-01-04T05:22:58.971Z,99531.41
2023-01-04T05:25:44.563Z,99525.44
2023-01-04T05:28:29.792Z,99515.13
2023-01-04T05:31:15.057Z,99501.22
2023-01-04T05:34:00.590Z,99500.00
2023-01-04T05:36:46.026Z,99492.44
2023-01-04T05:39:32.363Z,99490.03
2023-01-04T05:42:28.014Z,99485.72
2023-01-04T05:45:15.224Z,99477.38
2023-01-04T05:48:01.145Z,99470.22
2023-01-04T05:50:47.669Z,99470.97
2023-01-04T05:53:33.189Z,99466.94
2023-01-04T05:56:18.823Z,99465.34
2023-01-04T05:59:04.157Z,99466.13
2023-01-04T06:01:49.663Z,99465.34
2023-01-04T06:04:34.957Z,99470.88
2023-01-04T06:07:20.683Z,99454.22
2023-01-04T06:10:07.816Z,99456.63
2023-01-04T06:12:53.131Z,99448.69
2023-01-04T06:15:43.082Z,99446.31
2023-01-04T06:18:28.997Z,99439.22
2023-01-04T06:21:14.445Z,99447.19
2023-01-04T06:23:59.678Z,99440.03
2023-01-04T06:26:45.000Z,99432.91
2023-01-04T06:29:30.180Z,99424.56
2023-01-04T06:32:15.341Z,99423.81
2023-01-04T06:35:00.779Z,99415.47
2023-01-04T06:37:46.026Z,99412.25
2023-01-04T06:40:31.373Z,99415.03
2023-01-04T06:43:16.876Z,99404.72
2023-01-04T06:46:03.687Z,99396.38
2023-01-04T06:48:49.376Z,99387.59
2023-01-04T06:51:34.660Z,99386.41
2023-01-04T06:54:20.012Z,99382.41
2023-01-04T06:57:05.221Z,99382.41
2023-01-04T06:59:50.598Z,99384.00
2023-01-04T07:02:36.125Z,99370.13
2023-01-04T07:05:21.593Z,99376.44
2023-01-04T07:08:08.366Z,99368.13
2023-01-04T07:10:53.668Z,99369.75
2023-01-04T07:13:38.959Z,99369.31
2023-01-04T07:16:26.984Z,99370.13
2023-01-04T07:19:12.116Z,99361.41
2023-01-04T07:21:58.882Z,99360.63
2023-01-04T07:24:44.627Z,99372.53
2023-01-04T07:27:30.200Z,99377.31
2023-01-04T07:30:15.365Z,99362.59
2023-01-04T07:33:00.735Z,99353.91
2023-01-04T07:35:46.045Z,99351.13
2023-01-04T07:38:31.427Z,99340.81
2023-01-04T07:41:16.871Z,99340.00
2023-01-04T07:44:02.173Z,99349.56
2023-01-04T07:46:47.889Z,99353.53
2023-01-04T07:49:33.394Z,99362.31
2023-01-04T07:52:18.734Z,99361.53
2023-01-04T07:55:04.275Z,99361.53
2023-01-04T07:57:49.455Z,99363.50
2023-01-04T08:00:34.745Z,99352.75
2023-01-04T08:03:20.146Z,99355.97
2023-01-04T08:06:06.830Z,99350.41
2023-01-04T08:08:51.991Z,99351.97
2023-01-04T08:11:37.512Z,99338.09
2023-01-04T08:14:23.436Z,99327.75
2023-01-04T08:17:10.115Z,99318.63
2023-01-04T08:19:55.342Z,99312.66
2023-01-04T08:22:40.933Z,99314.63
2023-01-04T08:25:26.336Z,99309.06
2023-01-04T08:28:11.625Z,99303.53
2023-01-04T08:30:57.370Z,99279.72
2023-01-04T08:33:43.677Z,99271.41
2023-01-04T08:36:31.715Z,99261.50
2023-01-04T08:39:17.748Z,99248.81
2023-01-04T08:42:17.949Z,99244.03
2023-01-04T08:45:06.972Z,99234.91
2023-01-04T08:47:52.269Z,99227.81
2023-01-04T08:50:37.618Z,99225.03
2023-01-04T08:53:22.936Z,99221.88
2023-01-04T08:56:08.798Z,99221.44
2023-01-04T08:58:53.990Z,99222.66
2023-01-04T09:01:40.005Z,99231.41
2023-01-04T09:04:25.407Z,99231.41
2023-01-04T09:07:10.706Z,99227.84
2023-01-04T09:09:57.097Z,99217.53
2023-01-04T09:12:43.067Z,99214.75
2023-01-04T09:15:28.638Z,99219.09
2023-01-04T09:18:31.719Z,99207.22
2023-01-04T09:21:20.767Z,99203.63
2023-01-04T09:24:06.200Z,99194.09
2023-01-04T09:26:51.512Z,99201.22
2023-01-04T09:29:36.845Z,99195.66
2023-01-04T09:32:22.276Z,99201.22
2023-01-04T09:35:08.289Z,99200.44
2023-01-04T09:37:55.299Z,99190.88
2023-01-04T09:41:12.902Z,99199.66
2023-01-04T09:44:07.177Z,99183.00
2023-01-04T09:47:01.184Z,99161.53
2023-01-04T09:49:52.764Z,99163.53
2023-01-04T09:53:16.648Z,99167.50
2023-01-04T09:56:16.770Z,99151.66
2023-01-04T09:59:07.241Z,99125.84
2023-01-04T10:01:59.609Z,99129.06
2023-01-04T10:04:47.649Z,99132.63
2023-01-04T10:07:34.549Z,99131.41
2023-01-04T10:10:51.863Z,99131.84
2023-01-04T10:14:00.779Z,99133.03
2023-01-04T10:17:16.374Z,99110.03
2023-01-04T10:23:44.066Z,99105.69
2023-01-04T10:26:36.794Z,99101.34
2023-01-04T10:29:55.638Z,99109.69
2023-01-04T10:32:42.591Z,99091.78
2023-01-04T10:35:29.462Z,99103.34
2023-01-04T10:38:23.851Z,99134.25
2023-01-04T10:41:21.660Z,99121.16
2023-01-04T10:44:20.731Z,99096.16
2023-01-04T10:47:18.285Z,99076.72
2023-01-04T10:50:14.707Z,99083.03
2023-01-04T10:53:12.369Z,99079.50
2023-01-04T10:56:23.846Z,99055.25
2023-01-04T10:59:27.495Z,99060.81
2023-01-04T11:02:43.888Z,99063.59
2023-01-04T11:05:44.631Z,99048.94
2023-01-04T11:08:39.922Z,99052.50
2023-01-04T11:11:32.388Z,99051.28
2023-01-04T11:14:18.095Z,99032.25
2023-01-04T11:17:05.878Z,99033.03
2023-01-04T11:19:51.300Z,99026.28
2023-01-04T11:22:42.728Z,99021.94
2023-01-04T11:25:36.206Z,99010.41
2023-01-04T11:28:24.008Z,99005.25
2023-01-04T11:31:09.600Z,99000.94
2023-01-04T11:34:03.820Z,98997.34
2023-01-04T11:36:49.033Z,98993.38
2023-01-04T11:39:34.177Z,98985.03
2023-01-04T11:42:21.800Z,98985.81
2023-01-04T11:45:17.585Z,98983.03
2023-01-04T11:48:12.361Z,98981.03
2023-01-04T11:51:01.132Z,98994.16
2023-01-04T11:53:59.764Z,98972.34
2023-01-04T11:57:00.106Z,98960.03
2023-01-04T11:59:45.790Z,98943.38
2023-01-04T12:05:37.525Z,98937.03
2023-01-04T12:08:35.343Z,98941.38
2023-01-04T12:11:31.327Z,98920.38
2023-01-04T12:14:29.516Z,98926.72
2023-01-04T12:17:59.295Z,98917.59
2023-01-04T12:20:45.296Z,98917.59
2023-01-04T12:23:33.519Z,98905.69
2023-01-04T12:26:19.752Z,98905.25
2023-01-04T12:29:23.395Z,98898.94
2023-01-04T12:32:11.783Z,98898.94
2023-01-04T12:34:57.567Z,98899.72
2023-01-04T12:37:46.152Z,98896.16
2023-01-04T12:40:47.036Z,98894.94
2023-01-04T12:43:41.707Z,98893.38
2023-01-04T12:46:50.290Z,98896.16
2023-01-04T12:49:41.806Z,98878.72
2023-01-04T12:52:37.804Z,98867.59
2023-01-04T12:55:31.052Z,98854.91
2023-01-04T12:58:51.146Z,98854.13
2023-01-04T13:01:34.945Z,98836.25
2023-01-04T13:04:30.341Z,98834.69
2023-01-04T13:07:31.259Z,98832.69
2023-01-04T13:10:21.581Z,98831.94
2023-01-04T13:13:12.903Z,98826.78
2023-01-04T13:16:20.306Z,98816.50
2023-01-04T13:19:22.638Z,98830.38
2023-01-04T13:22:42.637Z,98820.03
2023-01-04T13:25:28.599Z,98816.50
2023-01-04T13:28:18.651Z,98810.94
2023-01-04T13:31:03.965Z,98819.25
2023-01-04T13:33:50.277Z,98817.25
2023-01-04T13:36:35.595Z,98806.94
2023-01-04T13:39:20.954Z,98814.47
2023-01-04T13:42:14.405Z,98793.47
2023-01-04T13:45:19.962Z,98799.81
2023-01-04T13:48:12.652Z,98804.06
2023-01-04T13:51:04.258Z,98804.06
2023-01-04T13:53:54.897Z,98781.75
2023-01-04T13:56:41.687Z,98781.22
2023-01-04T13:59:27.396Z,98763.00
2023-01-04T14:02:20.719Z,98768.03
2023-01-04T14:05:17.734Z,98779.50
2023-01-04T14:08:09.867Z,98767.88
2023-01-04T14:10:55.227Z,98785.56
2023-01-04T14:13:47.240Z,98785.84
2023-01-04T14:16:32.465Z,98780.19
2023-01-04T14:19:39.434Z,98772.56
2023-01-04T14:22:34.977Z,98784.72
2023-01-04T14:25:40.729Z,98794.50
2023-01-04T14:28:32.309Z,98795.97
2023-01-04T14:31:20.428Z,98787.09
2023-01-04T14:34:07.568Z,98778.25
2023-01-04T14:37:03.805Z,98757.47
2023-01-04T14:39:49.439Z,98765.69
2023-01-04T14:42:34.657Z,98764.38
2023-01-04T14:45:20.119Z,98763.94
2023-01-04T14:48:05.874Z,98754.72
2023-01-04T14:50:51.461Z,98756.63
2023-01-04T14:53:37.059Z,98765.31
2023-01-04T14:56:22.288Z,98760.09
2023-01-04T14:59:08.448Z,98744.53
2023-01-04T15:01:55.914Z,98742.44
2023-01-04T15:04:42.004Z,98754.31
2023-01-04T15:07:40.389Z,98741.09
2023-01-04T15:10:28.153Z,98748.97
2023-01-04T15:13:13.700Z,98742.22
2023-01-04T15:15:58.983Z,98743.75
2023-01-04T15:18:45.821Z,98740.56
2023-01-04T15:21:34.108Z,98734.22
2023-01-04T15:24:26.965Z,98742.91
2023-01-04T15:27:13.645Z,98738.44
2023-01-04T15:29:59.241Z,98746.78
2023-01-04T15:32:44.547Z,98737.91
2023-01-04T15:35:30.134Z,98729.91
2023-01-04T15:38:18.515Z,98729.56
2023-01-04T15:41:06.642Z,98729.56
2023-01-04T15:43:52.139Z,98721.22
2023-01-04T15:46:37.575Z,98718.69
2023-01-04T15:49:23.360Z,98728.16
2023-01-04T15:52:08.612Z,98747.16
2023-01-04T15:55:07.068Z,98724.38
2023-01-04T15:57:52.482Z,98704.09
2023-01-04T16:00:39.206Z,98715.56
2023-01-04T16:03:24.474Z,98725.91
2023-01-04T16:06:15.503Z,98721.59
2023-01-04T16:09:02.001Z,98704.44
2023-01-04T16:12:06.082Z,98701.22
2023-01-04T16:14:51.757Z,98695.53
2023-01-04T16:17:37.763Z,98698.19
2023-01-04T16:20:23.950Z,98679.81
2023-01-04T16:23:09.523Z,98687.72
2023-01-04T16:26:25.054Z,98670.25
2023-01-04T16:29:13.049Z,98685.38
2023-01-04T16:31:59.074Z,98686.63
2023-01-04T16:34:44.769Z,98673.47
2023-01-04T16:37:30.950Z,98652.44
2023-01-04T16:40:16.518Z,98651.66
2023-01-04T16:43:02.889Z,98654.13
2023-01-04T16:45:48.878Z,98612.81
2023-01-04T16:48:34.609Z,98634.31
2023-01-04T16:51:21.310Z,98622.03
2023-01-04T16:54:09.325Z,98614.16
2023-01-04T16:56:58.537Z,98615.16
2023-01-04T16:59:44.219Z,98597.22
2023-01-04T17:02:29.813Z,98590.75
2023-01-04T17:05:15.573Z,98586.41
2023-01-04T17:08:00.915Z,98595.19
2023-01-04T17:10:46.256Z,98583.28
2023-01-04T17:13:34.821Z,98569.38
2023-01-04T17:16:23.645Z,98578.97
2023-01-04T17:19:09.701Z,98572.59
2023-01-04T17:21:54.997Z,98585.75
2023-01-04T17:24:40.576Z,98598.88
2023-01-04T17:27:26.451Z,98583.72
2023-01-04T17:30:12.394Z,98587.75
2023-01-04T17:32:58.354Z,98594.09
2023-01-04T17:35:43.778Z,98595.66
2023-01-04T17:38:29.003Z,98611.56
2023-01-04T17:41:25.726Z,98607.56
2023-01-04T17:44:11.672Z,98594.88
2023-01-04T17:46:57.297Z,98593.66
2023-01-04T17:49:42.635Z,98598.44
2023-01-04T17:52:31.169Z,98580.50
2023-01-04T17:55:18.078Z,98574.94
2023-01-04T17:58:06.226Z,98578.97
2023-01-04T18:00:55.683Z,98570.16
2023-01-04T18:03:46.589Z,98564.59
2023-01-04T18:06:36.484Z,98555.13
2023-01-04T18:09:24.557Z,98565.06
2023-01-04T18:12:10.024Z,98561.47
2023-01-04T18:14:55.253Z,98541.53
2023-01-04T18:17:41.297Z,98550.66
2023-01-04T18:20:27.335Z,98559.47
2023-01-04T18:23:24.269Z,98550.22
2023-01-04T18:26:12.538Z,98551.78
2023-01-04T18:28:58.515Z,98537.84
2023-01-04T18:31:44.294Z,98555.78
2023-01-04T18:34:30.169Z,98545.56
2023-01-04T18:37:16.559Z,98552.00
2023-01-04T18:40:03.171Z,98552.16
2023-01-04T18:42:49.637Z,98547.47
2023-01-04T18:45:35.597Z,98540.78
2023-01-04T18:48:21.474Z,98547.25
2023-01-04T18:51:12.477Z,98539.47
2023-01-04T18:53:58.253Z,98532.78
2023-01-04T18:56:43.987Z,98530.09
2023-01-04T18:59:30.392Z,98536.56
2023-01-04T19:02:18.571Z,98506.84
2023-01-04T19:05:04.905Z,98515.78
2023-01-04T19:07:50.615Z,98500.72
2023-01-04T19:10:36.225Z,98511.22
2023-01-04T19:13:21.601Z,98535.44
2023-01-04T19:16:11.720Z,98504.97
2023-01-04T19:18:59.106Z,98499.09
2023-01-04T19:21:46.377Z,98485.28
2023-01-04T19:24:32.411Z,98484.63
2023-01-04T19:27:18.019Z,98487.09
2023-01-04T19:30:04.163Z,98476.84
2023-01-04T19:32:49.761Z,98478.41
2023-01-04T19:35:40.661Z,98468.97
2023-01-04T19:38:26.404Z,98459.16
2023-01-04T19:41:21.114Z,98460.38
2023-01-04T19:44:09.594Z,98457.28
2023-01-04T19:46:55.577Z,98458.19
2023-01-04T19:49:43.306Z,98463.41
2023-01-04T19:52:30.813Z,98470.16
2023-01-04T19:55:17.058Z,98475.41
2023-01-04T19:58:03.224Z,98462.41
2023-01-04T20:00:54.209Z,98461.28
2023-01-04T20:03:44.692Z,98464.06
2023-01-04T20:06:29.971Z,98470.84
2023-01-04T20:09:15.647Z,98472.84
2023-01-04T20:12:01.393Z,98476.53
2023-01-04T20:14:47.532Z,98471.41
2023-01-04T20:17:33.351Z,98452.38
2023-01-04T20:20:19.380Z,98450.84
2023-01-04T20:23:05.987Z,98454.84
2023-01-04T20:25:54.010Z,98463.63
2023-01-04T20:28:41.905Z,98458.50
2023-01-04T20:31:27.849Z,98463.72
2023-01-04T20:34:14.218Z,98454.59
2023-01-04T20:36:59.823Z,98466.16
2023-01-04T20:39:45.319Z,98455.50
2023-01-04T20:42:49.070Z,98468.59
2023-01-04T20:45:34.289Z,98458.69
2023-01-04T20:48:19.670Z,98454.38
2023-01-04T20:51:20.346Z,98454.03
2023-01-04T20:54:05.981Z,98448.47
2023-01-04T20:56:51.283Z,98437.78
2023-01-04T20:59:36.815Z,98442.59
2023-01-04T21:02:22.155Z,98417.25
2023-01-04T21:05:08.212Z,98386.69
2023-01-04T21:07:53.536Z,98400.56
2023-01-04T21:10:43.427Z,98373.56
2023-01-04T21:13:28.592Z,98385.91
2023-01-04T21:16:15.073Z,98405.34
2023-01-04T21:19:00.416Z,98386.34
2023-01-04T21:21:45.606Z,98393.09
2023-01-04T21:24:34.629Z,98410.25
2023-01-04T21:27:19.825Z,98399.56
2023-01-04T21:30:05.857Z,98393.22
2023-01-04T21:32:51.321Z,98384.91
2023-01-04T21:35:37.905Z,98387.34
2023-01-04T21:38:23.746Z,98400.47
2023-01-04T21:41:11.450Z,98396.09
2023-01-04T21:43:57.917Z,98372.34
2023-01-04T21:46:43.557Z,98377.56
2023-01-04T21:49:28.757Z,98362.09
2023-01-04T21:52:14.297Z,98374.88
2023-01-04T21:54:59.562Z,98365.00
2023-01-04T21:57:44.698Z,98367.00
2023-01-04T22:00:30.220Z,98341.22
2023-01-04T22:03:17.088Z,98362.66
2023-01-04T22:06:03.310Z,98360.66
2023-01-04T22:08:50.576Z,98364.22
2023-01-04T22:11:36.920Z,98365.78
2023-01-04T22:14:22.541Z,98351.88
2023-01-04T22:17:08.089Z,98382.00
2023-01-04T22:19:53.535Z,98384.31
2023-01-04T22:22:38.838Z,98376.78
2023-01-04T22:25:24.163Z,98398.53
2023-01-04T22:28:13.664Z,98370.78
2023-01-04T22:31:04.756Z,98352.91
2023-01-04T22:33:50.567Z,98361.22
2023-01-04T22:36:35.925Z,98373.88
2023-01-04T22:39:21.605Z,98355.22
2023-01-04T22:42:06.816Z,98362.78
2023-01-04T22:44:52.195Z,98350.13
2023-01-04T22:47:37.569Z,98350.88
2023-01-04T22:50:23.198Z,98322.34
2023-01-04T22:53:08.501Z,98331.09
2023-01-04T22:56:19.012Z,98321.56
2023-01-04T22:58:59.652Z,98327.56
2023-01-04T23:01:45.164Z,98345.00
2023-01-04T23:04:30.317Z,98358.13
2023-01-04T23:07:15.728Z,98349.00
2023-01-04T23:10:01.083Z,98374.00
2023-01-04T23:12:46.323Z,98375.22
2023-01-04T23:15:31.824Z,98357.44
2023-01-04T23:18:17.194Z,98380.44
2023-01-04T23:21:04.048Z,98380.09
2023-01-04T23:23:50.489Z,98374.53
2023-01-04T23:26:35.715Z,98366.69
2023-01-04T23:29:21.155Z,98365.44
2023-01-04T23:32:06.522Z,98367.44
2023-01-04T23:34:51.857Z,98362.31
2023-01-04T23:37:37.397Z,98348.00
2023-01-04T23:40:22.523Z,98351.22
2023-01-04T23:43:07.815Z,98350.00
2023-01-04T23:45:52.958Z,98336.91
2023-01-04T23:48:38.332Z,98345.22
2023-01-04T23:51:23.553Z,98337.66
2023-01-04T23:54:09.347Z,98332.09
2023-01-04T23:56:55.265Z,98326.56
2023-01-04T23:59:40.469Z,98342.00
